Terminal Aerodrome Forecast
Issued by NWS

Home | Current Version | Previous Version | Text Only | Print | Product List | Glossary On
Versions: 1 2 3 4 5 6 7 8 9 10 11 12 13 14 15 16 17 18 19 20 21 22 23 24 25 26 27 28 29 30 31 32
000
FTUS41 KBUF 281500 AAB
TAFJHW
TAF AMD
KJHW 281506Z 2815/2912 29010G15KT 6SM -SHSN OVC030
     FM281800 27010KT P6SM SCT025 BKN040
     FM282300 22006KT P6SM BKN025
     FM290900 18007KT P6SM BKN025
      AMD LTD TO CLD VIS AND WIND=

USA.gov is the U.S. government's official web portal to all federal, state and local government web resources and services.